Time;durP1;ratioP1;P1;durP2;ratioP2;P2;SDS_P1;SDS_P2;PMS_P1;PMS_P2;Temp;Humidity;BMP_temperature;BMP_pressure;BME280_temperature;BME280_humidity;BME280_pressure;Samples;Min_cycle;Max_cycle;Signal;HPM_P1;HPM_P2
2023/08/12 00:01:09;;;;;;;7.10;2.15;;;19.60;99.90;;;;;;5054746;28;20573;-68
2023/08/12 00:03:38;;;;;;;3.47;2.10;;;19.60;99.90;;;;;;5056865;28;20080;-68
2023/08/12 00:06:05;;;;;;;4.35;2.10;;;19.60;99.90;;;;;;5094594;28;20044;-68
2023/08/12 00:08:31;;;;;;;4.68;1.80;;;19.60;99.90;;;;;;5065182;28;20036;-68
2023/08/12 00:10:56;;;;;;;;;;;19.60;99.90;;;;;;5061980;28;20045;-68
2023/08/12 00:13:22;;;;;;;7.05;1.92;;;19.60;99.90;;;;;;5065581;28;19939;-68
2023/08/12 00:15:48;;;;;;;3.22;1.75;;;19.50;99.90;;;;;;5096079;28;20440;-68
2023/08/12 00:18:15;;;;;;;5.68;2.08;;;19.60;99.90;;;;;;5067329;28;20055;-68
2023/08/12 00:20:42;;;;;;;4.53;1.90;;;19.60;99.90;;;;;;5062452;28;20056;-68
2023/08/12 00:23:08;;;;;;;5.05;2.30;;;19.60;99.90;;;;;;5062137;28;20078;-69
2023/08/12 00:25:36;;;;;;;3.60;1.92;;;19.50;99.90;;;;;;5075345;22;20079;-74
2023/08/12 00:28:02;;;;;;;4.18;2.08;;;19.50;99.90;;;;;;5056189;28;20445;-74
2023/08/12 00:30:28;;;;;;;;;;;19.60;99.90;;;;;;5064321;28;20045;-74
2023/08/12 00:32:54;;;;;;;6.47;2.95;;;19.60;99.90;;;;;;5055270;28;20460;-74
2023/08/12 00:35:19;;;;;;;5.93;2.42;;;19.50;99.90;;;;;;5074464;28;20406;-74
2023/08/12 00:37:45;;;;;;;7.35;2.17;;;19.50;99.90;;;;;;5054553;28;20052;-74
2023/08/12 00:40:12;;;;;;;;;;;19.50;99.90;;;;;;5067970;28;20543;-74
2023/08/12 00:42:38;;;;;;;3.93;1.90;;;19.50;99.90;;;;;;5035062;28;19921;-74
2023/08/12 00:45:09;;;;;;;4.45;2.10;;;19.50;99.90;;;;;;5070604;28;20528;-74
2023/08/12 00:47:34;;;;;;;4.68;2.05;;;19.50;99.90;;;;;;5055216;28;20040;-74
2023/08/12 00:50:00;;;;;;;4.90;2.15;;;19.50;99.90;;;;;;5056550;28;20329;-73
2023/08/12 00:52:26;;;;;;;3.80;1.85;;;19.50;99.90;;;;;;5036036;28;20036;-73
2023/08/12 00:54:53;;;;;;;6.90;2.65;;;19.50;99.90;;;;;;5042595;28;20089;-73
2023/08/12 00:57:19;;;;;;;4.38;2.42;;;19.50;99.90;;;;;;5067310;28;20036;-74
2023/08/12 00:59:44;;;;;;;;;;;19.50;99.90;;;;;;5047766;28;20370;-73
2023/08/12 01:02:11;;;;;;;4.03;1.80;;;19.50;99.90;;;;;;5040681;28;19931;-73
2023/08/12 01:04:40;;;;;;;4.70;2.03;;;19.50;99.90;;;;;;5059575;28;20045;-73
2023/08/12 01:07:06;;;;;;;4.75;1.70;;;19.50;99.90;;;;;;5043998;28;20082;-73
2023/08/12 01:09:32;;;;;;;;;;;19.40;99.90;;;;;;5045621;28;20418;-73
2023/08/12 01:12:06;;;;;;;4.95;2.22;;;19.40;99.90;;;;;;5060530;28;19999;-73
2023/08/12 01:14:59;;;;;;;4.97;2.33;;;19.40;99.90;;;;;;5055249;28;20040;-73
2023/08/12 01:17:28;;;;;;;4.38;2.28;;;19.40;99.90;;;;;;5044695;28;20115;-73
2023/08/12 01:19:55;;;;;;;6.10;2.40;;;19.40;99.90;;;;;;5042626;28;20481;-73
2023/08/12 01:22:23;;;;;;;6.07;2.30;;;19.40;99.90;;;;;;5034018;28;20051;-73
2023/08/12 01:24:51;;;;;;;6.45;2.20;;;19.40;99.90;;;;;;5038422;28;20082;-74
2023/08/12 01:27:17;;;;;;;6.28;2.90;;;19.40;99.90;;;;;;5061189;28;20434;-73
2023/08/12 01:29:45;;;;;;;4.90;2.35;;;19.40;99.90;;;;;;5072547;28;20154;-73
2023/08/12 01:32:44;;;;;;;7.40;2.60;;;19.30;99.90;;;;;;5046340;28;20039;-73
2023/08/12 01:35:19;;;;;;;5.03;2.42;;;19.30;99.90;;;;;;5014572;28;20135;-73
2023/08/12 01:37:46;;;;;;;5.22;2.50;;;19.30;99.90;;;;;;5054761;28;20055;-73
2023/08/12 01:40:15;;;;;;;6.60;2.95;;;19.30;99.90;;;;;;5037360;28;20508;-73
2023/08/12 01:42:41;;;;;;;6.50;2.63;;;19.30;99.90;;;;;;5053643;28;20480;-73
2023/08/12 01:45:07;;;;;;;5.47;2.72;;;19.20;99.90;;;;;;5046058;28;20409;-74
2023/08/12 01:47:33;;;;;;;6.05;2.88;;;19.20;99.90;;;;;;5051243;28;20044;-73
2023/08/12 01:49:59;;;;;;;5.38;2.92;;;19.20;99.90;;;;;;5052469;28;20149;-73
2023/08/12 01:52:25;;;;;;;13.13;3.63;;;19.20;99.90;;;;;;5042565;28;20043;-73
2023/08/12 01:54:51;;;;;;;;;;;19.20;99.90;;;;;;5057204;28;20505;-73
2023/08/12 01:57:17;;;;;;;5.15;3.03;;;19.20;99.90;;;;;;5046763;28;20007;-73
2023/08/12 01:59:45;;;;;;;6.53;3.10;;;19.10;99.90;;;;;;5045862;28;20134;-73
2023/08/12 02:02:12;;;;;;;8.57;3.00;;;19.10;99.90;;;;;;5065997;28;20040;-73
2023/08/12 02:04:39;;;;;;;5.20;2.65;;;19.20;99.90;;;;;;5047526;28;20044;-74
2023/08/12 02:07:04;;;;;;;6.00;3.47;;;19.10;99.90;;;;;;5065051;28;20506;-73
2023/08/12 02:09:30;;;;;;;7.63;2.90;;;19.20;99.90;;;;;;5032906;28;20047;-73
2023/08/12 02:11:59;;;;;;;5.25;2.97;;;19.20;99.90;;;;;;5071786;28;20196;-73
2023/08/12 02:14:24;;;;;;;8.75;3.58;;;19.20;99.90;;;;;;5079988;28;20036;-73
2023/08/12 02:16:50;;;;;;;7.40;3.38;;;19.10;99.90;;;;;;5046989;28;20050;-73
2023/08/12 02:19:16;;;;;;;5.63;3.15;;;19.10;99.90;;;;;;5054444;28;20051;-73
2023/08/12 02:21:42;;;;;;;7.40;3.10;;;19.10;99.90;;;;;;5053885;28;20082;-73
2023/08/12 02:24:08;;;;;;;6.38;2.90;;;19.10;99.90;;;;;;5043101;28;20538;-70
2023/08/12 02:26:34;;;;;;;9.18;3.08;;;19.10;99.90;;;;;;5042463;28;20071;-72
2023/08/12 02:28:59;;;;;;;4.68;3.10;;;19.10;99.90;;;;;;5041148;28;20197;-73
2023/08/12 02:31:25;;;;;;;6.80;3.60;;;19.10;99.90;;;;;;5054596;28;20094;-70
2023/08/12 02:33:51;;;;;;;6.05;3.30;;;19.10;99.90;;;;;;5052047;28;20380;-70
2023/08/12 02:36:17;;;;;;;5.38;3.17;;;19.10;99.90;;;;;;5043055;28;20040;-70
2023/08/12 02:38:43;;;;;;;7.85;3.67;;;19.10;99.90;;;;;;5020950;28;20087;-70
2023/08/12 02:41:09;;;;;;;;;;;19.10;99.90;;;;;;5058178;28;20506;-70
2023/08/12 02:43:35;;;;;;;7.88;3.55;;;19.00;99.90;;;;;;5032526;28;19955;-70
2023/08/12 02:46:00;;;;;;;6.43;3.42;;;19.00;99.90;;;;;;5045589;28;20040;-70
2023/08/12 02:48:26;;;;;;;5.78;3.35;;;19.00;99.90;;;;;;5047685;28;20044;-70
2023/08/12 02:50:52;;;;;;;6.03;3.67;;;19.00;99.90;;;;;;5046503;28;20041;-71
2023/08/12 02:53:18;;;;;;;6.75;3.80;;;19.00;99.90;;;;;;5051157;28;20491;-70
2023/08/12 02:55:45;;;;;;;6.72;3.90;;;19.00;99.90;;;;;;5041682;28;20147;-70
2023/08/12 02:58:11;;;;;;;7.88;3.90;;;19.00;99.90;;;;;;5051663;28;20549;-70
2023/08/12 03:00:37;;;;;;;8.73;3.53;;;19.00;99.90;;;;;;5048623;28;20036;-72
2023/08/12 03:03:04;;;;;;;7.90;3.53;;;19.00;99.90;;;;;;5059963;28;20549;-70
2023/08/12 03:05:31;;;;;;;6.30;3.55;;;19.00;99.90;;;;;;5052395;28;20048;-70
2023/08/12 03:08:01;;;;;;;8.75;4.05;;;19.00;99.90;;;;;;5039886;28;20061;-73
2023/08/12 03:10:27;;;;;;;8.05;3.92;;;19.00;99.90;;;;;;5033596;28;20037;-73
2023/08/12 03:12:53;;;;;;;9.55;3.95;;;18.90;99.90;;;;;;5054766;28;20048;-70
2023/08/12 03:15:19;;;;;;;6.35;3.70;;;18.90;99.90;;;;;;5048591;28;20051;-73
2023/08/12 03:17:47;;;;;;;8.68;3.83;;;18.90;99.90;;;;;;5057357;28;20520;-72
2023/08/12 03:20:13;;;;;;;10.07;3.85;;;19.00;99.90;;;;;;5050665;28;20047;-73
2023/08/12 03:22:39;;;;;;;7.78;4.18;;;18.90;99.90;;;;;;5051560;28;20051;-73
2023/08/12 03:25:05;;;;;;;7.80;3.67;;;18.90;99.90;;;;;;5051603;28;20050;-73
2023/08/12 03:27:31;;;;;;;7.43;4.25;;;19.00;99.90;;;;;;5045623;28;20123;-73
2023/08/12 03:29:57;;;;;;;7.20;3.97;;;19.00;99.90;;;;;;5040744;28;20052;-73
2023/08/12 03:32:25;;;;;;;6.40;3.72;;;19.00;99.90;;;;;;5048863;28;20140;-73
2023/08/12 03:34:50;;;;;;;9.13;4.05;;;19.00;99.90;;;;;;5076846;28;20048;-73
2023/08/12 03:37:18;;;;;;;7.63;3.90;;;19.00;99.90;;;;;;5044758;28;20040;-73
2023/08/12 03:39:44;;;;;;;8.60;4.75;;;19.00;99.90;;;;;;5061596;28;20044;-73
2023/08/12 03:42:10;;;;;;;7.07;3.95;;;19.00;99.90;;;;;;5052247;28;20381;-73
2023/08/12 03:44:36;;;;;;;9.45;4.07;;;19.00;99.90;;;;;;5045955;28;20048;-73
2023/08/12 03:47:01;;;;;;;8.18;3.80;;;19.00;99.90;;;;;;5036903;28;20378;-73
2023/08/12 03:49:27;;;;;;;7.05;4.13;;;19.00;99.90;;;;;;5064887;28;20286;-73
2023/08/12 03:51:53;;;;;;;10.90;4.40;;;19.00;99.90;;;;;;5058266;28;20107;-73
2023/08/12 03:54:18;;;;;;;6.20;3.90;;;19.00;99.90;;;;;;5047234;28;20045;-73
2023/08/12 03:56:44;;;;;;;11.60;4.90;;;19.00;99.90;;;;;;5053979;28;20044;-72
2023/08/12 03:59:10;;;;;;;;;;;19.00;99.90;;;;;;5078500;28;20490;-72
2023/08/12 04:01:37;;;;;;;7.45;4.50;;;19.00;99.90;;;;;;5049410;28;19973;-72
2023/08/12 04:04:03;;;;;;;8.65;4.40;;;19.00;99.90;;;;;;5057501;28;20060;-72
2023/08/12 04:06:29;;;;;;;8.40;4.28;;;19.00;99.90;;;;;;5056663;28;20082;-72
2023/08/12 04:08:54;;;;;;;6.63;4.03;;;19.00;99.90;;;;;;5033246;28;20041;-72
2023/08/12 04:11:20;;;;;;;8.68;4.50;;;19.00;99.90;;;;;;5041164;28;20450;-73
2023/08/12 04:13:46;;;;;;;7.00;4.50;;;19.00;99.90;;;;;;5058405;28;20037;-73
2023/08/12 04:16:14;;;;;;;11.73;4.40;;;19.10;99.90;;;;;;5050025;28;20071;-72
2023/08/12 04:18:40;;;;;;;8.93;4.68;;;19.00;99.90;;;;;;5046310;28;20040;-73
2023/08/12 04:21:06;;;;;;;11.10;4.45;;;19.00;99.90;;;;;;5062052;28;20501;-73
2023/08/12 04:23:32;;;;;;;9.85;4.63;;;19.10;99.90;;;;;;5054841;28;20044;-72
2023/08/12 04:25:57;;;;;;;9.05;4.88;;;19.10;99.90;;;;;;5039398;28;20254;-73
2023/08/12 04:28:23;;;;;;;7.88;4.32;;;19.10;99.90;;;;;;5055697;28;20101;-72
2023/08/12 04:30:52;;;;;;;6.85;4.10;;;19.10;99.90;;;;;;5047668;28;20070;-73
2023/08/12 04:33:19;;;;;;;7.45;4.20;;;19.10;99.90;;;;;;5058888;28;20036;-73
2023/08/12 04:35:46;;;;;;;8.52;3.92;;;19.10;99.90;;;;;;5042202;28;20149;-73
2023/08/12 04:38:11;;;;;;;12.98;4.75;;;19.10;99.90;;;;;;5047650;28;20040;-73
2023/08/12 04:40:41;;;;;;;6.68;3.53;;;19.10;99.90;;;;;;5054899;28;20472;-72
2023/08/12 04:43:08;;;;;;;8.35;4.45;;;19.20;99.90;;;;;;5053210;28;20055;-73
2023/08/12 04:45:34;;;;;;;7.65;3.53;;;19.20;99.90;;;;;;5047100;28;20041;-73
2023/08/12 04:48:00;;;;;;;9.40;4.40;;;19.20;99.90;;;;;;5054735;28;20135;-72
2023/08/12 04:50:30;;;;;;;10.20;4.38;;;19.20;99.90;;;;;;5045362;28;20038;-73
2023/08/12 04:52:56;;;;;;;9.73;3.78;;;19.20;99.90;;;;;;5047987;28;20037;-73
2023/08/12 04:55:22;;;;;;;8.95;4.45;;;19.20;99.90;;;;;;5050994;28;20042;-73
2023/08/12 04:57:47;;;;;;;8.40;3.58;;;19.20;99.90;;;;;;5043831;28;20165;-73
2023/08/12 05:00:14;;;;;;;6.75;4.32;;;19.30;99.90;;;;;;5059481;28;20075;-72
2023/08/12 05:02:42;;;;;;;8.57;4.22;;;19.30;99.90;;;;;;5051546;28;20414;-73
2023/08/12 05:05:08;;;;;;;6.25;3.92;;;19.30;99.90;;;;;;5052152;28;20506;-72
2023/08/12 05:07:34;;;;;;;5.60;3.92;;;19.30;99.90;;;;;;5042936;28;20076;-73
2023/08/12 05:10:02;;;;;;;7.72;4.45;;;19.30;99.90;;;;;;5060077;28;21025;-73
2023/08/12 05:12:28;;;;;;;7.47;4.40;;;19.40;99.90;;;;;;5034305;28;20032;-73
2023/08/12 05:14:54;;;;;;;6.07;3.90;;;19.40;99.90;;;;;;5046004;28;20052;-73
2023/08/12 05:17:21;;;;;;;8.52;4.10;;;19.40;99.90;;;;;;5051341;28;20051;-73
2023/08/12 05:19:47;;;;;;;10.40;4.20;;;19.40;99.90;;;;;;5040158;28;20382;-73
2023/08/12 05:22:12;;;;;;;9.20;4.38;;;19.50;99.90;;;;;;5044588;28;20040;-72
2023/08/12 05:24:38;;;;;;;7.70;4.45;;;19.50;99.90;;;;;;5049064;28;20055;-72
2023/08/12 05:27:04;;;;;;;10.10;4.75;;;19.50;99.90;;;;;;5043397;28;20135;-73
2023/08/12 05:29:30;;;;;;;10.10;4.45;;;19.60;99.90;;;;;;5052926;28;20143;-73
2023/08/12 05:31:56;;;;;;;8.45;4.20;;;19.60;99.90;;;;;;5052574;28;20115;-72
2023/08/12 05:34:22;;;;;;;8.60;4.32;;;19.60;99.90;;;;;;5055339;28;20546;-72
2023/08/12 05:36:48;;;;;;;7.88;4.38;;;19.60;99.90;;;;;;5061229;28;20352;-73
2023/08/12 05:39:15;;;;;;;9.60;4.50;;;19.70;99.90;;;;;;5050918;28;20051;-73
2023/08/12 05:41:41;;;;;;;7.32;4.28;;;19.70;99.90;;;;;;5052171;28;20723;-73
2023/08/12 05:44:06;;;;;;;8.32;4.57;;;19.70;99.90;;;;;;5039582;28;20217;-73
2023/08/12 05:46:32;;;;;;;8.77;4.80;;;19.70;99.90;;;;;;5050647;28;20086;-73
2023/08/12 05:48:58;;;;;;;10.25;4.68;;;19.70;99.90;;;;;;5038340;28;20040;-72
2023/08/12 05:51:25;;;;;;;7.30;4.28;;;19.70;99.90;;;;;;5040487;28;20044;-73
2023/08/12 05:53:51;;;;;;;7.20;4.50;;;19.70;99.90;;;;;;5037321;28;20033;-73
2023/08/12 05:56:17;;;;;;;9.10;4.35;;;19.80;99.90;;;;;;5057368;28;20044;-73
2023/08/12 05:58:42;;;;;;;6.55;4.25;;;19.80;99.90;;;;;;5058419;28;20463;-73
2023/08/12 06:01:08;;;;;;;9.30;4.40;;;19.80;99.90;;;;;;5050054;28;20044;-72
2023/08/12 06:03:34;;;;;;;10.05;4.72;;;19.80;99.90;;;;;;5045806;28;20052;-73
2023/08/12 06:05:59;;;;;;;10.80;4.30;;;19.80;99.90;;;;;;5059056;28;20399;-73
2023/08/12 06:08:25;;;;;;;7.93;4.85;;;19.80;99.90;;;;;;5049975;28;20047;-72
2023/08/12 06:10:51;;;;;;;7.55;4.88;;;19.90;99.90;;;;;;5044926;28;20040;-73
2023/08/12 06:13:17;;;;;;;10.00;5.03;;;19.90;99.90;;;;;;5050588;28;20121;-73
2023/08/12 06:15:42;;;;;;;10.55;4.63;;;19.90;99.90;;;;;;5033826;28;20049;-73
2023/08/12 06:18:08;;;;;;;7.95;4.60;;;19.90;99.90;;;;;;5044997;28;20123;-73
2023/08/12 06:20:34;;;;;;;12.13;6.05;;;19.90;99.90;;;;;;5041988;28;20711;-73
2023/08/12 06:23:00;;;;;;;12.45;5.43;;;19.90;99.90;;;;;;5048930;28;20039;-73
2023/08/12 06:25:26;;;;;;;11.00;5.28;;;19.90;99.90;;;;;;5044384;28;20046;-73
2023/08/12 06:27:52;;;;;;;10.00;5.55;;;20.00;99.90;;;;;;5046187;28;20040;-73
2023/08/12 06:30:17;;;;;;;11.88;5.53;;;20.00;99.90;;;;;;5051377;28;20047;-73
2023/08/12 06:32:43;;;;;;;12.25;5.88;;;20.00;99.90;;;;;;5052817;28;20048;-73
2023/08/12 06:35:09;;;;;;;10.13;5.75;;;20.00;99.90;;;;;;5057103;28;20032;-73
2023/08/12 06:37:35;;;;;;;11.50;5.82;;;20.00;99.90;;;;;;5154345;22;20055;-68
2023/08/12 06:40:00;;;;;;;10.40;5.93;;;20.10;99.90;;;;;;5047741;28;20045;-68
2023/08/12 06:42:26;;;;;;;15.38;7.00;;;20.10;99.90;;;;;;5061838;28;20036;-68
2023/08/12 06:44:58;;;;;;;16.23;6.95;;;20.10;99.90;;;;;;5063408;28;20152;-68
2023/08/12 06:47:23;;;;;;;12.05;6.15;;;20.10;99.90;;;;;;5034693;28;20548;-68
2023/08/12 06:49:49;;;;;;;15.27;6.35;;;20.10;99.90;;;;;;5033150;28;20041;-68
2023/08/12 06:52:16;;;;;;;13.38;7.13;;;20.20;99.90;;;;;;5042704;28;20068;-69
2023/08/12 06:54:42;;;;;;;10.68;6.60;;;20.20;99.90;;;;;;5022880;28;20072;-68
2023/08/12 06:57:07;;;;;;;11.40;6.88;;;20.20;99.90;;;;;;5043122;28;20133;-69
2023/08/12 06:59:33;;;;;;;17.67;7.30;;;20.20;99.90;;;;;;5049817;28;20116;-69
2023/08/12 07:01:59;;;;;;;16.25;6.90;;;20.30;99.90;;;;;;5038266;28;20045;-68
2023/08/12 07:04:25;;;;;;;12.82;6.93;;;20.30;99.90;;;;;;5041914;28;20048;-68
2023/08/12 07:06:50;;;;;;;;;;;20.30;99.90;;;;;;5036543;28;20047;-68
2023/08/12 07:09:18;;;;;;;12.43;7.50;;;20.30;99.90;;;;;;5041413;28;20015;-68
2023/08/12 07:11:44;;;;;;;12.52;7.57;;;20.30;99.90;;;;;;5036039;28;20052;-68
2023/08/12 07:14:12;;;;;;;17.00;8.30;;;20.30;99.90;;;;;;5047231;28;20033;-68
2023/08/12 07:16:37;;;;;;;11.85;7.53;;;20.30;99.90;;;;;;5045871;28;20053;-68
2023/08/12 07:19:03;;;;;;;14.02;8.35;;;20.30;99.90;;;;;;5047455;28;20047;-68
2023/08/12 07:21:29;;;;;;;12.27;7.50;;;20.40;99.90;;;;;;5047001;28;20154;-68
2023/08/12 07:23:54;;;;;;;17.45;8.07;;;20.30;99.90;;;;;;5038169;28;20398;-69
2023/08/12 07:26:20;;;;;;;14.57;7.72;;;20.40;99.90;;;;;;5027473;28;20095;-68
2023/08/12 07:28:46;;;;;;;14.10;7.18;;;20.40;99.90;;;;;;5045223;28;20625;-68
2023/08/12 07:31:11;;;;;;;10.95;7.18;;;20.40;99.90;;;;;;5045177;28;20443;-68
2023/08/12 07:33:40;;;;;;;14.57;7.63;;;20.40;99.90;;;;;;5047219;28;20041;-68
2023/08/12 07:36:06;;;;;;;16.60;8.07;;;20.40;99.90;;;;;;5045115;28;20079;-68
2023/08/12 07:38:34;;;;;;;12.35;6.35;;;20.50;99.90;;;;;;5026456;28;20072;-68
2023/08/12 07:41:00;;;;;;;13.50;7.40;;;20.50;99.90;;;;;;5050761;28;20105;-72
2023/08/12 07:43:26;;;;;;;;;;;20.50;99.90;;;;;;5043478;28;20045;-68
2023/08/12 07:45:55;;;;;;;11.82;6.78;;;20.50;99.90;;;;;;5045130;28;19982;-69
2023/08/12 07:48:21;;;;;;;12.50;7.15;;;20.50;99.90;;;;;;5047455;28;20076;-69
2023/08/12 07:50:49;;;;;;;;;;;20.50;99.90;;;;;;5044024;28;20041;-68
2023/08/12 07:53:16;;;;;;;14.00;7.05;;;20.50;99.90;;;;;;5048099;28;20218;-68
2023/08/12 07:55:42;;;;;;;14.98;7.28;;;20.50;99.90;;;;;;5046888;28;20110;-68
2023/08/12 07:58:10;;;;;;;17.05;7.97;;;20.50;99.90;;;;;;5040415;28;20112;-69
2023/08/12 08:00:36;;;;;;;13.05;7.05;;;20.60;99.90;;;;;;5028312;28;20133;-68
2023/08/12 08:03:01;;;;;;;;;;;20.60;99.90;;;;;;5049777;28;20072;-69
2023/08/12 08:05:27;;;;;;;11.77;6.97;;;20.60;99.90;;;;;;5046610;28;20512;-69
2023/08/12 08:07:55;;;;;;;12.45;6.97;;;20.50;99.90;;;;;;5042163;28;20037;-68
2023/08/12 08:10:21;;;;;;;13.25;7.70;;;20.60;99.90;;;;;;5048539;28;20401;-68
2023/08/12 08:12:46;;;;;;;;;;;20.60;99.90;;;;;;5043278;28;20043;-68
2023/08/12 08:15:12;;;;;;;12.80;7.20;;;20.60;99.90;;;;;;5038630;28;19924;-69
2023/08/12 08:17:40;;;;;;;12.45;7.72;;;20.50;99.90;;;;;;5044480;28;20459;-69
2023/08/12 08:20:07;;;;;;;16.48;7.03;;;20.50;99.90;;;;;;5044338;28;20052;-68
2023/08/12 08:22:33;;;;;;;13.82;7.82;;;20.50;99.90;;;;;;5044582;28;20102;-68
2023/08/12 08:24:58;;;;;;;;;;;20.50;99.90;;;;;;5038679;28;20036;-68
2023/08/12 08:27:33;;;;;;;18.23;7.57;;;20.50;99.90;;;;;;5041519;28;19924;-68
2023/08/12 08:30:00;;;;;;;16.27;8.55;;;20.50;99.90;;;;;;5044846;28;20063;-68
2023/08/12 08:32:26;;;;;;;13.13;7.10;;;20.40;99.90;;;;;;5044345;28;20090;-69
2023/08/12 08:34:52;;;;;;;;;;;20.50;99.90;;;;;;5038986;28;20056;-68
2023/08/12 08:37:17;;;;;;;14.13;7.25;;;20.40;99.90;;;;;;5043563;28;19917;-69
2023/08/12 08:39:43;;;;;;;;;;;20.40;99.90;;;;;;5046203;28;20068;-69
2023/08/12 08:42:15;;;;;;;13.65;8.30;;;20.40;99.90;;;;;;5040741;28;20334;-68
2023/08/12 08:44:44;;;;;;;17.60;8.45;;;20.40;99.90;;;;;;5043498;28;20132;-69
2023/08/12 08:47:11;;;;;;;13.98;8.05;;;20.40;99.90;;;;;;5033656;28;20075;-68
2023/08/12 08:49:37;;;;;;;15.45;8.32;;;20.50;99.90;;;;;;5044590;28;20055;-69
2023/08/12 08:52:03;;;;;;;;;;;20.50;99.90;;;;;;5062994;28;20052;-68
2023/08/12 08:54:29;;;;;;;15.07;7.97;;;20.50;99.90;;;;;;5047446;28;19916;-69
2023/08/12 08:56:55;;;;;;;17.58;10.10;;;20.50;99.90;;;;;;5043171;28;20049;-69
2023/08/12 08:59:24;;;;;;;;;;;20.50;99.90;;;;;;5043639;28;20049;-69
2023/08/12 09:01:53;;;;;;;15.10;9.60;;;20.60;99.90;;;;;;5061366;28;19917;-68
2023/08/12 09:04:21;;;;;;;16.70;9.77;;;20.50;99.90;;;;;;5046189;28;20041;-69
2023/08/12 09:06:49;;;;;;;16.95;8.55;;;20.60;99.90;;;;;;5045940;28;20037;-69
2023/08/12 09:09:19;;;;;;;15.30;8.15;;;20.50;99.90;;;;;;5039361;28;20041;-69
2023/08/12 09:11:48;;;;;;;17.05;9.27;;;20.60;99.90;;;;;;5043152;28;20045;-69
2023/08/12 09:14:16;;;;;;;19.30;10.13;;;20.60;99.90;;;;;;5038582;28;20048;-69
2023/08/12 09:16:42;;;;;;;18.23;9.63;;;20.60;99.90;;;;;;5041245;28;20040;-69
2023/08/12 09:19:08;;;;;;;;;;;20.60;99.90;;;;;;5044837;28;20051;-69
2023/08/12 09:21:33;;;;;;;15.05;10.02;;;20.50;99.90;;;;;;5045768;28;20007;-69
2023/08/12 09:24:04;;;;;;;16.90;9.05;;;20.50;99.90;;;;;;5043393;28;20392;-69
2023/08/12 09:26:35;;;;;;;15.90;9.55;;;20.50;99.90;;;;;;5046806;28;20048;-69
2023/08/12 09:29:00;;;;;;;13.57;8.77;;;20.50;99.90;;;;;;5040777;28;20139;-69
2023/08/12 09:31:27;;;;;;;;;;;20.50;99.90;;;;;;5041193;28;20116;-68
2023/08/12 09:34:03;;;;;;;16.52;9.45;;;20.50;99.90;;;;;;5023933;28;20377;-68
2023/08/12 09:36:30;;;;;;;12.40;8.10;;;20.40;99.90;;;;;;5031589;28;20137;-69
2023/08/12 09:38:58;;;;;;;14.23;8.80;;;20.40;99.90;;;;;;5027890;28;20548;-69
2023/08/12 09:41:27;;;;;;;16.88;9.43;;;20.40;99.90;;;;;;5044622;28;20132;-69
2023/08/12 09:43:53;;;;;;;19.13;8.98;;;20.40;99.90;;;;;;5035736;28;20041;-69
2023/08/12 09:46:23;;;;;;;;;;;20.40;99.90;;;;;;5035204;28;20132;-69
2023/08/12 09:48:51;;;;;;;13.15;8.68;;;20.40;99.90;;;;;;5037307;28;20036;-69
2023/08/12 09:51:17;;;;;;;14.23;7.82;;;20.40;99.90;;;;;;5036963;28;20044;-70
2023/08/12 09:53:43;;;;;;;;;;;20.40;99.90;;;;;;5042942;28;20047;-73
2023/08/12 09:56:11;;;;;;;12.05;7.05;;;20.40;99.90;;;;;;5041534;28;19917;-71
2023/08/12 09:58:39;;;;;;;10.70;6.43;;;20.50;99.90;;;;;;5037487;28;20087;-70
2023/08/12 10:01:07;;;;;;;10.30;7.18;;;20.50;99.90;;;;;;5040658;28;20045;-71
2023/08/12 10:03:33;;;;;;;9.02;5.53;;;20.50;99.90;;;;;;5046646;28;20041;-71
2023/08/12 10:06:01;;;;;;;9.10;5.55;;;20.50;99.90;;;;;;5043143;28;20046;-71
2023/08/12 10:08:28;;;;;;;9.98;5.68;;;20.50;99.90;;;;;;5041034;28;20092;-70
2023/08/12 10:10:54;;;;;;;8.50;4.55;;;20.50;99.90;;;;;;5045620;28;20053;-70
2023/08/12 10:13:20;;;;;;;;;;;20.50;99.90;;;;;;5045867;28;20471;-70
2023/08/12 10:15:49;;;;;;;10.68;4.22;;;20.50;99.90;;;;;;5041553;28;20015;-70
2023/08/12 10:18:17;;;;;;;6.20;4.05;;;20.50;99.90;;;;;;5043008;28;20037;-71
2023/08/12 10:20:44;;;;;;;8.07;4.65;;;20.50;99.90;;;;;;5042681;28;20072;-72
2023/08/12 10:23:18;;;;;;;8.80;4.20;;;20.50;99.90;;;;;;5045081;28;20041;-71
2023/08/12 10:25:49;;;;;;;6.50;4.43;;;20.60;99.90;;;;;;5022304;28;20486;-70
2023/08/12 10:28:18;;;;;;;10.13;4.30;;;20.60;99.90;;;;;;5036588;28;20234;-70
2023/08/12 10:30:45;;;;;;;6.32;3.67;;;20.60;99.90;;;;;;5038765;28;20133;-69
2023/08/12 10:33:11;;;;;;;5.97;3.80;;;20.60;99.90;;;;;;5037972;28;20052;-70
2023/08/12 10:35:44;;;;;;;;;;;20.60;99.90;;;;;;5040019;28;20107;-69
2023/08/12 10:38:11;;;;;;;7.65;3.58;;;20.60;99.90;;;;;;5053696;28;19917;-72
2023/08/12 10:40:37;;;;;;;5.13;2.85;;;20.60;99.90;;;;;;5044334;28;20047;-73
2023/08/12 10:43:03;;;;;;;;;;;20.60;99.90;;;;;;5043187;28;20417;-70
2023/08/12 10:45:49;;;;;;;7.18;2.10;;;20.40;99.90;;;;;;5042237;28;19940;-72
2023/08/12 10:48:21;;;;;;;4.17;1.40;;;20.00;99.90;;;;;;5027320;28;20116;-73
2023/08/12 10:50:55;;;;;;;2.25;0.80;;;19.70;99.90;;;;;;5030305;28;20473;-74
2023/08/12 10:53:29;;;;;;;4.93;1.10;;;19.30;99.90;;;;;;5044129;28;20065;-70
2023/08/12 10:56:00;;;;;;;2.92;1.17;;;18.90;99.90;;;;;;5043648;28;20049;-72
2023/08/12 10:58:45;;;;;;;2.65;0.98;;;18.70;99.90;;;;;;5046126;28;20037;-69
2023/08/12 11:01:18;;;;;;;1.67;0.88;;;18.40;99.90;;;;;;5040251;28;20046;-70
2023/08/12 11:03:44;;;;;;;5.97;1.33;;;18.30;99.90;;;;;;5026747;28;20049;-68
2023/08/12 11:06:11;;;;;;;4.82;1.27;;;18.30;99.90;;;;;;5031703;28;20041;-69
2023/08/12 11:08:48;;;;;;;4.75;1.08;;;18.20;99.90;;;;;;5037988;28;20036;-69
2023/08/12 11:11:23;;;;;;;4.10;1.20;;;18.10;99.90;;;;;;5040917;28;20487;-69
2023/08/12 11:13:58;;;;;;;5.55;1.65;;;18.00;99.90;;;;;;5025959;28;20091;-69
2023/08/12 11:16:37;;;;;;;8.73;1.50;;;18.00;99.90;;;;;;5058239;28;20044;-69
2023/08/12 11:19:04;;;;;;;8.30;1.73;;;18.00;99.90;;;;;;5037135;28;20577;-69
2023/08/12 11:21:30;;;;;;;7.03;2.17;;;18.00;99.90;;;;;;5019424;28;20084;-68
2023/08/12 11:23:56;;;;;;;8.05;1.50;;;18.00;99.90;;;;;;5041156;28;20458;-68
2023/08/12 11:26:24;;;;;;;6.63;1.48;;;18.00;99.90;;;;;;5045683;28;20049;-68
2023/08/12 11:28:50;;;;;;;7.93;1.45;;;18.00;99.90;;;;;;5038473;28;20170;-68
2023/08/12 11:31:17;;;;;;;5.15;1.58;;;18.00;99.90;;;;;;5027561;28;20450;-68
2023/08/12 11:33:45;;;;;;;5.07;1.52;;;18.10;99.90;;;;;;5050690;28;20414;-69
2023/08/12 11:36:11;;;;;;;7.38;1.38;;;18.10;99.90;;;;;;5037892;28;20522;-69
2023/08/12 11:38:38;;;;;;;6.25;1.58;;;18.10;99.90;;;;;;5041254;28;20041;-72
2023/08/12 11:41:03;;;;;;;5.93;1.13;;;18.00;99.90;;;;;;5040899;28;20045;-71
2023/08/12 11:43:32;;;;;;;7.70;2.00;;;18.10;99.90;;;;;;5040982;28;21789;-68
2023/08/12 11:45:58;;;;;;;4.05;1.65;;;18.10;99.90;;;;;;5043990;28;20140;-68
2023/08/12 11:48:26;;;;;;;7.70;1.55;;;18.10;99.90;;;;;;5042254;28;20053;-68
2023/08/12 11:50:53;;;;;;;5.07;1.55;;;18.20;99.90;;;;;;5042938;28;20088;-68
2023/08/12 11:53:18;;;;;;;7.22;1.60;;;18.20;99.90;;;;;;5047276;28;20083;-68
2023/08/12 11:55:44;;;;;;;4.40;1.85;;;18.30;99.90;;;;;;5039492;28;20506;-68
2023/08/12 11:58:13;;;;;;;8.10;2.00;;;18.30;99.90;;;;;;5038685;28;20037;-68
2023/08/12 12:00:39;;;;;;;5.00;1.60;;;18.30;99.90;;;;;;5037041;28;20049;-68
2023/08/12 12:03:06;;;;;;;7.88;1.77;;;18.30;99.90;;;;;;5038424;28;20036;-68
2023/08/12 12:05:32;;;;;;;7.18;1.75;;;18.40;99.90;;;;;;5047597;28;20041;-68
2023/08/12 12:07:59;;;;;;;4.85;1.92;;;18.50;99.90;;;;;;5044275;28;20102;-68
2023/08/12 12:10:32;;;;;;;6.03;1.98;;;18.60;99.90;;;;;;5036750;28;20033;-68
2023/08/12 12:12:59;;;;;;;4.13;1.98;;;18.70;99.90;;;;;;5051394;28;20076;-68
2023/08/12 12:15:25;;;;;;;5.50;2.03;;;18.70;99.90;;;;;;5044389;28;20056;-68
2023/08/12 12:17:52;;;;;;;7.82;2.20;;;18.80;99.90;;;;;;5044544;28;20079;-67
2023/08/12 12:20:18;;;;;;;6.80;2.22;;;19.00;99.90;;;;;;5043446;28;20106;-68
2023/08/12 12:22:45;;;;;;;8.18;2.35;;;19.10;99.90;;;;;;5055510;28;20041;-68
2023/08/12 12:25:20;;;;;;;7.38;2.92;;;19.20;99.90;;;;;;5038376;28;20454;-68
2023/08/12 12:27:46;;;;;;;6.25;1.77;;;19.30;99.90;;;;;;5040629;28;20433;-68
2023/08/12 12:30:13;;;;;;;6.07;2.20;;;19.40;99.90;;;;;;5047448;28;20080;-68
2023/08/12 12:32:39;;;;;;;6.90;2.10;;;19.40;99.90;;;;;;5045980;28;20044;-68
2023/08/12 12:35:09;;;;;;;5.60;1.90;;;19.50;99.90;;;;;;5047041;28;20095;-68
2023/08/12 12:37:36;;;;;;;6.10;1.80;;;19.50;99.90;;;;;;5028079;28;20120;-68
2023/08/12 12:40:02;;;;;;;4.25;1.75;;;19.70;99.90;;;;;;5046987;28;20981;-68
2023/08/12 12:42:29;;;;;;;5.25;1.92;;;20.00;99.90;;;;;;5047114;28;20124;-68
2023/08/12 12:44:58;;;;;;;9.50;1.85;;;20.20;99.90;;;;;;5046868;28;20555;-68
2023/08/12 12:47:23;;;;;;;6.15;2.13;;;20.40;99.90;;;;;;5052215;28;20077;-68
2023/08/12 12:49:49;;;;;;;8.20;1.95;;;20.60;99.90;;;;;;5044999;28;20713;-69